Time;durP1;ratioP1;P1;durP2;ratioP2;P2;SDS_P1;SDS_P2;PMS_P1;PMS_P2;Temp;Humidity;BMP_temperature;BMP_pressure;BME280_temperature;BME280_humidity;BME280_pressure;Samples;Min_cycle;Max_cycle;Signal;HPM_P1;HPM_P2
2024/04/06 00:01:30;;;;;;;17.40;4.80;;;;;;;17.75;69.67;101184.25;5033848;28;20041;-44
2024/04/06 00:03:55;;;;;;;14.40;4.82;;;;;;;17.76;69.56;101183.38;5033587;28;20136;-43
2024/04/06 00:06:20;;;;;;;16.65;5.22;;;;;;;17.74;70.05;101182.53;5033269;28;20036;-45
2024/04/06 00:08:47;;;;;;;19.13;5.03;;;;;;;17.74;70.20;101179.00;5033360;28;20142;-46
2024/04/06 00:11:13;;;;;;;21.75;5.07;;;;;;;17.74;70.35;101179.88;5034050;28;20125;-47
2024/04/06 00:13:38;;;;;;;16.58;4.93;;;;;;;17.74;70.46;101177.25;5033270;28;20124;-50
2024/04/06 00:16:03;;;;;;;13.70;4.90;;;;;;;17.72;70.58;101179.03;5033680;28;20030;-43
2024/04/06 00:18:29;;;;;;;14.73;4.38;;;;;;;17.76;70.06;101175.44;5033251;28;20492;-45
2024/04/06 00:20:54;;;;;;;17.83;4.70;;;;;;;17.71;70.58;101179.91;5033684;28;20037;-46
2024/04/06 00:23:19;;;;;;;17.67;4.15;;;;;;;17.63;70.64;101183.50;5033372;28;20033;-49
2024/04/06 00:25:45;;;;;;;12.38;4.20;;;;;;;17.62;71.24;101187.94;5032367;28;20049;-46
2024/04/06 00:28:10;;;;;;;14.82;4.57;;;;;;;17.62;71.44;101187.06;5033206;28;20052;-45
2024/04/06 00:30:35;;;;;;;15.98;4.55;;;;;;;17.65;71.29;101179.97;5032756;28;20065;-46
2024/04/06 00:33:00;;;;;;;10.43;4.03;;;;;;;17.70;71.37;101172.88;5033651;28;20034;-47
2024/04/06 00:35:26;;;;;;;17.63;4.32;;;;;;;17.77;71.09;101163.13;5031361;28;20482;-48
2024/04/06 00:37:51;;;;;;;15.50;4.38;;;;;;;17.80;71.22;101171.91;5032412;28;20404;-50
2024/04/06 00:40:17;;;;;;;15.98;4.50;;;;;;;17.75;71.66;101157.88;5032968;28;20048;-48
2024/04/06 00:42:42;;;;;;;13.23;4.30;;;;;;;17.67;72.04;101156.22;5033266;28;20554;-45
2024/04/06 00:45:08;;;;;;;14.18;4.40;;;;;;;17.79;71.96;101150.81;5033839;28;20034;-46
2024/04/06 00:47:35;;;;;;;14.10;4.50;;;;;;;17.90;71.76;101150.69;5033190;28;20038;-46
2024/04/06 00:50:00;;;;;;;10.63;4.25;;;;;;;17.85;72.10;101153.38;5033392;28;20049;-42
2024/04/06 00:52:25;;;;;;;12.30;4.40;;;;;;;17.93;72.24;101148.03;5033952;28;20048;-44
2024/04/06 00:54:50;;;;;;;16.40;4.93;;;;;;;17.93;72.63;101150.66;5033400;28;20033;-48
2024/04/06 00:57:16;;;;;;;14.10;4.65;;;;;;;17.96;72.52;101142.69;5033643;28;20045;-45
2024/04/06 00:59:42;;;;;;;15.85;4.80;;;;;;;18.01;72.29;101128.56;5033453;28;20072;-48
2024/04/06 01:02:08;;;;;;;13.35;4.47;;;;;;;17.96;72.79;101125.09;5032838;28;20037;-46
2024/04/06 01:04:33;;;;;;;12.63;4.60;;;;;;;17.96;72.90;101125.09;5031920;28;20112;-47
2024/04/06 01:06:58;;;;;;;10.27;4.07;;;;;;;17.96;72.89;101122.47;5032379;28;20045;-47
2024/04/06 01:09:24;;;;;;;14.43;4.95;;;;;;;18.00;72.46;101125.91;5032329;28;20030;-47
2024/04/06 01:11:49;;;;;;;11.10;4.53;;;;;;;17.94;72.68;101126.88;5030497;28;20504;-47
2024/04/06 01:14:15;;;;;;;10.45;4.50;;;;;;;17.89;72.98;101119.91;5032280;28;20037;-47
2024/04/06 01:16:41;;;;;;;13.30;4.63;;;;;;;17.81;73.52;101112.09;5031630;28;20045;-46
2024/04/06 01:19:06;;;;;;;14.27;5.00;;;;;;;17.78;74.69;101105.13;5031047;28;20557;-45
2024/04/06 01:21:31;;;;;;;13.02;4.88;;;;;;;17.87;74.98;101113.81;5031551;28;20029;-47
2024/04/06 01:23:57;;;;;;;10.57;4.75;;;;;;;17.84;75.56;101117.34;5031975;28;20041;-45
2024/04/06 01:26:22;;;;;;;12.40;5.28;;;;;;;17.92;75.00;101122.53;5031904;28;20054;-45
2024/04/06 01:28:48;;;;;;;13.63;5.30;;;;;;;17.91;74.69;101136.59;5031908;28;20175;-47
2024/04/06 01:31:14;;;;;;;13.23;5.20;;;;;;;17.87;75.15;101114.66;5033652;28;20029;-48
2024/04/06 01:33:39;;;;;;;11.20;5.38;;;;;;;17.86;75.02;101128.75;5032864;28;20037;-45
2024/04/06 01:36:06;;;;;;;12.10;4.90;;;;;;;17.77;74.88;101126.22;5031886;28;20492;-46
2024/04/06 01:38:31;;;;;;;12.68;5.68;;;;;;;17.71;75.62;101118.38;5031817;28;20037;-45
2024/04/06 01:40:56;;;;;;;12.27;5.75;;;;;;;17.65;76.87;101121.09;5032015;28;20117;-45
2024/04/06 01:43:21;;;;;;;13.63;5.80;;;;;;;17.71;76.89;101121.91;5033076;28;20087;-44
2024/04/06 01:45:47;;;;;;;15.98;5.75;;;;;;;17.65;77.33;101132.50;5032178;28;20068;-47
2024/04/06 01:48:12;;;;;;;12.95;6.07;;;;;;;17.68;77.19;101132.50;5031676;28;20116;-45
2024/04/06 01:50:37;;;;;;;10.48;5.53;;;;;;;17.66;76.95;101130.75;5031537;28;20084;-47
2024/04/06 01:53:03;;;;;;;12.48;6.03;;;;;;;17.55;77.47;101125.56;5032210;28;20044;-44
2024/04/06 01:55:28;;;;;;;11.80;5.75;;;;;;;17.56;78.06;101129.09;5032569;28;20041;-46
2024/04/06 01:57:53;;;;;;;13.88;5.97;;;;;;;17.36;79.52;101110.84;5033181;28;20041;-43
2024/04/06 02:00:19;;;;;;;14.40;6.35;;;;;;;17.28;80.95;101117.94;5032534;28;20544;-45
2024/04/06 02:02:44;;;;;;;12.60;6.13;;;;;;;17.53;79.95;101123.84;5032262;28;20057;-43
2024/04/06 02:05:09;;;;;;;12.85;6.13;;;;;;;17.63;79.32;101117.59;5032544;28;20040;-43
2024/04/06 02:07:35;;;;;;;12.63;5.97;;;;;;;17.67;79.36;101125.47;5031646;28;20454;-47
2024/04/06 02:10:00;;;;;;;13.00;6.20;;;;;;;17.68;79.12;101123.72;5031195;28;20045;-46
2024/04/06 02:12:25;;;;;;;14.88;5.80;;;;;;;17.68;78.83;101115.81;5031127;28;20037;-46
2024/04/06 02:14:50;;;;;;;15.10;5.97;;;;;;;17.63;79.66;101109.69;5030340;28;20060;-43
2024/04/06 02:17:16;;;;;;;11.68;5.30;;;;;;;17.66;79.78;101109.66;5030770;28;20033;-50
2024/04/06 02:19:41;;;;;;;13.55;5.50;;;;;;;17.69;79.53;101106.97;5030080;28;20125;-48
2024/04/06 02:22:06;;;;;;;12.70;5.30;;;;;;;17.69;79.66;101109.59;5031028;28;20052;-46
2024/04/06 02:24:32;;;;;;;11.18;5.10;;;;;;;17.69;79.35;101106.97;5030232;28;20030;-49
2024/04/06 02:26:57;;;;;;;10.15;5.20;;;;;;;17.66;79.49;101101.75;5030710;28;20029;-44
2024/04/06 02:29:23;;;;;;;10.52;4.97;;;;;;;17.52;79.85;101098.34;5030929;28;20056;-45
2024/04/06 02:31:48;;;;;;;14.15;5.80;;;;;;;17.52;80.93;101096.59;5030713;28;20164;-45
2024/04/06 02:34:13;;;;;;;13.13;5.90;;;;;;;17.15;83.30;101085.56;5030986;28;20120;-45
2024/04/06 02:36:39;;;;;;;12.45;6.40;;;;;;;17.36;83.03;101092.41;5030363;28;20810;-46
2024/04/06 02:39:09;;;;;;;10.75;5.30;;;;;;;17.55;81.78;101104.50;5031029;28;20115;-45
2024/04/06 02:41:35;;;;;;;8.88;5.70;;;;;;;17.49;82.65;101096.66;5030771;28;20025;-49
2024/04/06 02:44:00;;;;;;;11.65;5.80;;;;;;;17.51;82.01;101084.31;5031582;28;20036;-44
2024/04/06 02:46:26;;;;;;;8.73;5.47;;;;;;;17.31;82.94;101079.28;5031124;28;20467;-45
2024/04/06 02:48:51;;;;;;;14.18;6.22;;;;;;;17.03;85.33;101075.16;5030278;28;20140;-45
2024/04/06 02:51:16;;;;;;;11.23;5.93;;;;;;;17.40;83.50;101070.38;5030676;28;20048;-44
2024/04/06 02:53:42;;;;;;;12.85;6.53;;;;;;;17.47;83.03;101079.09;5029889;28;20040;-48
2024/04/06 02:56:07;;;;;;;10.70;5.97;;;;;;;17.65;82.27;101068.34;5029176;28;20116;-44
2024/04/06 02:58:33;;;;;;;12.60;6.35;;;;;;;17.70;81.82;101083.22;5030668;28;20040;-49
2024/04/06 03:00:58;;;;;;;14.07;6.28;;;;;;;17.71;81.95;101081.47;5031382;28;20125;-46
2024/04/06 03:03:24;;;;;;;15.80;6.70;;;;;;;17.63;82.05;101081.56;5030540;28;20404;-43
2024/04/06 03:05:49;;;;;;;13.73;6.72;;;;;;;17.69;81.73;101077.97;5029910;28;20093;-46
2024/04/06 03:08:14;;;;;;;12.13;6.47;;;;;;;17.68;82.17;101078.88;5030136;28;20484;-46
2024/04/06 03:10:39;;;;;;;12.02;7.00;;;;;;;17.65;82.09;101069.22;5029692;28;20056;-45
2024/04/06 03:13:05;;;;;;;13.52;7.10;;;;;;;17.66;82.06;101076.25;5030117;28;20088;-46
2024/04/06 03:15:30;;;;;;;11.30;6.75;;;;;;;17.29;83.76;101074.91;5029539;28;20037;-48
2024/04/06 03:17:55;;;;;;;15.23;7.57;;;;;;;17.45;84.77;101076.47;5030003;28;20038;-44
2024/04/06 03:20:21;;;;;;;15.82;7.28;;;;;;;17.37;84.42;101075.69;5028688;28;20040;-44
2024/04/06 03:22:59;;;;;;;12.82;7.00;;;;;;;17.47;84.20;101072.06;5029294;28;20037;-45
2024/04/06 03:25:25;;;;;;;15.18;7.25;;;;;;;17.52;83.68;101072.00;5029683;28;20037;-45
2024/04/06 03:27:50;;;;;;;13.52;7.18;;;;;;;17.63;83.02;101068.38;5028805;28;20029;-44
2024/04/06 03:30:15;;;;;;;12.48;7.10;;;;;;;17.61;83.17;101070.19;5031719;28;20141;-43
2024/04/06 03:32:41;;;;;;;11.90;7.05;;;;;;;17.68;82.58;101074.50;5030029;28;20048;-44
2024/04/06 03:35:06;;;;;;;13.63;6.88;;;;;;;17.75;82.09;101070.84;5029395;28;20046;-43
2024/04/06 03:37:31;;;;;;;11.18;6.97;;;;;;;17.73;82.01;101071.78;5029233;28;20033;-46
2024/04/06 03:39:56;;;;;;;14.93;7.40;;;;;;;17.59;82.24;101063.13;5029654;28;20121;-45
2024/04/06 03:42:25;;;;;;;13.02;7.55;;;;;;;17.34;83.93;101050.25;5029633;28;20037;-44
2024/04/06 03:44:50;;;;;;;16.33;7.82;;;;;;;17.49;83.56;101054.47;5029050;28;20049;-43
2024/04/06 03:47:15;;;;;;;14.25;8.25;;;;;;;17.30;84.49;101038.00;5029801;28;20131;-45
2024/04/06 03:49:40;;;;;;;14.82;8.23;;;;;;;17.48;83.80;101026.38;5029303;28;20456;-44
2024/04/06 03:52:06;;;;;;;15.18;8.43;;;;;;;17.22;84.67;101018.75;5028452;28;20040;-51
2024/04/06 03:54:31;;;;;;;16.52;8.45;;;;;;;17.35;85.04;101020.38;5028928;28;20038;-49
2024/04/06 03:56:56;;;;;;;17.92;8.55;;;;;;;17.50;83.46;101021.09;5029465;28;20476;-47
2024/04/06 03:59:22;;;;;;;13.50;7.60;;;;;;;17.58;83.82;101029.75;5029344;28;20033;-46
2024/04/06 04:01:47;;;;;;;14.05;7.68;;;;;;;17.56;83.08;101023.66;5029044;28;20041;-45
2024/04/06 04:04:12;;;;;;;10.90;7.32;;;;;;;17.19;84.76;101017.94;5029382;28;20036;-48
2024/04/06 04:06:37;;;;;;;11.75;7.00;;;;;;;17.43;85.03;101017.66;5028985;28;20496;-46
2024/04/06 04:09:03;;;;;;;12.23;6.70;;;;;;;17.64;83.74;101013.88;5029565;28;20029;-43
2024/04/06 04:11:28;;;;;;;11.57;6.50;;;;;;;17.39;84.35;101000.09;5029118;28;20380;-47
2024/04/06 04:13:53;;;;;;;11.02;6.68;;;;;;;17.35;84.64;100993.13;5030532;28;20041;-44
2024/04/06 04:16:18;;;;;;;12.25;6.45;;;;;;;17.59;83.31;100982.28;5029631;28;20093;-45
2024/04/06 04:18:44;;;;;;;11.98;6.35;;;;;;;17.34;84.81;100980.84;5030839;28;20396;-43
2024/04/06 04:21:09;;;;;;;8.85;5.70;;;;;;;17.30;84.76;100974.75;5031181;28;20025;-45
2024/04/06 04:23:34;;;;;;;11.82;5.95;;;;;;;17.27;85.38;100973.91;5030018;28;20029;-47
2024/04/06 04:26:00;;;;;;;13.60;6.93;;;;;;;17.09;86.13;100974.13;5030174;28;20033;-45
2024/04/06 04:28:25;;;;;;;14.45;7.30;;;;;;;17.10;85.85;100989.94;5029574;28;20551;-47
2024/04/06 04:30:51;;;;;;;15.98;7.65;;;;;;;17.21;84.83;100989.78;5031346;28;20025;-51
2024/04/06 04:33:17;;;;;;;13.43;7.28;;;;;;;17.03;84.79;100988.25;5033660;28;20061;-45
2024/04/06 04:35:43;;;;;;;11.68;6.60;;;;;;;17.20;84.75;100977.53;5032518;28;20516;-48
2024/04/06 04:38:08;;;;;;;13.88;7.18;;;;;;;16.99;85.81;100973.38;5032161;28;20095;-44
2024/04/06 04:40:33;;;;;;;13.52;6.75;;;;;;;17.13;85.26;100978.50;5032739;28;20116;-45
2024/04/06 04:42:59;;;;;;;12.10;6.50;;;;;;;17.15;85.12;100982.84;5033015;28;20087;-44
2024/04/06 04:45:24;;;;;;;11.75;6.60;;;;;;;17.31;84.49;100979.16;5032482;28;20060;-46
2024/04/06 04:47:49;;;;;;;12.82;7.22;;;;;;;17.31;83.40;100967.72;5031636;28;20033;-48
2024/04/06 04:50:15;;;;;;;11.85;7.03;;;;;;;17.24;83.49;100966.06;5032740;28;20083;-48
2024/04/06 04:52:41;;;;;;;11.70;6.85;;;;;;;16.81;85.73;100963.03;5031974;28;20408;-45
2024/04/06 04:55:06;;;;;;;11.20;6.65;;;;;;;16.86;85.62;100942.78;5030895;28;20033;-46
2024/04/06 04:57:32;;;;;;;15.75;6.75;;;;;;;16.94;85.03;100935.69;5032354;28;20038;-49
2024/04/06 05:00:00;;;;;;;9.40;6.30;;;;;;;16.92;85.62;100940.97;5031277;28;20060;-44
2024/04/06 05:02:25;;;;;;;9.77;6.22;;;;;;;17.20;84.17;100938.00;5032432;28;20033;-48
2024/04/06 05:04:51;;;;;;;11.02;5.70;;;;;;;17.35;83.55;100953.63;5031449;28;20496;-50
2024/04/06 05:07:18;;;;;;;10.73;6.05;;;;;;;16.90;86.00;100952.41;5032221;28;20026;-46
2024/04/06 05:09:45;;;;;;;9.07;6.22;;;;;;;16.85;86.05;100954.22;5030511;28;20053;-47
2024/04/06 05:12:10;;;;;;;10.57;6.00;;;;;;;17.01;85.08;100932.97;5032429;28;20038;-45
2024/04/06 05:14:36;;;;;;;9.10;5.40;;;;;;;17.24;84.51;100939.72;5031313;28;20519;-46
2024/04/06 05:17:01;;;;;;;10.52;6.07;;;;;;;17.12;84.56;100935.47;5031995;28;20048;-48
2024/04/06 05:19:26;;;;;;;9.77;5.82;;;;;;;17.17;84.83;100949.44;5032024;28;20033;-46
2024/04/06 05:21:51;;;;;;;11.55;5.53;;;;;;;17.12;85.00;100958.31;5031975;28;20040;-44
2024/04/06 05:24:17;;;;;;;10.85;5.63;;;;;;;17.22;84.43;100960.81;5032722;28;20021;-49
2024/04/06 05:26:44;;;;;;;9.00;5.50;;;;;;;17.09;84.50;100960.97;5030984;28;20065;-46
2024/04/06 05:29:10;;;;;;;11.00;5.68;;;;;;;17.51;82.34;100986.78;5032348;28;20033;-47
2024/04/06 05:31:35;;;;;;;9.60;5.32;;;;;;;17.47;82.07;100984.19;5031162;28;20049;-45
2024/04/06 05:34:01;;;;;;;11.50;6.03;;;;;;;17.29;82.80;100973.00;5031523;28;20084;-45
2024/04/06 05:36:26;;;;;;;10.23;5.72;;;;;;;17.18;83.87;100963.50;5031666;28;20033;-43
2024/04/06 05:38:52;;;;;;;11.50;5.90;;;;;;;17.12;83.68;100959.19;5031311;28;20041;-49
2024/04/06 05:41:17;;;;;;;9.05;5.30;;;;;;;17.25;83.22;100967.81;5031399;28;20563;-48
2024/04/06 05:43:42;;;;;;;12.68;5.70;;;;;;;16.98;84.60;100967.22;5030086;28;20492;-46
2024/04/06 05:46:08;;;;;;;11.35;5.45;;;;;;;17.30;83.25;100963.34;5031517;28;20108;-47
2024/04/06 05:48:33;;;;;;;9.50;5.35;;;;;;;17.52;82.45;100963.91;5031351;28;20031;-47
2024/04/06 05:50:58;;;;;;;7.80;4.75;;;;;;;17.63;80.93;100965.53;5031762;28;20037;-44
2024/04/06 05:53:24;;;;;;;7.55;4.93;;;;;;;17.76;80.75;100975.03;5031426;28;20026;-47
2024/04/06 05:55:49;;;;;;;8.15;4.85;;;;;;;17.58;81.43;100980.53;5031510;28;20041;-44
2024/04/06 05:58:14;;;;;;;10.25;4.80;;;;;;;17.95;80.03;100978.28;5032155;28;20033;-48
2024/04/06 06:00:40;;;;;;;7.05;4.85;;;;;;;17.72;80.64;100969.84;5031649;28;20100;-46
2024/04/06 06:03:05;;;;;;;7.75;4.53;;;;;;;17.73;80.67;100969.81;5031302;28;20057;-48
2024/04/06 06:05:31;;;;;;;7.15;4.75;;;;;;;17.82;79.93;100989.88;5031556;28;20041;-51
2024/04/06 06:07:56;;;;;;;8.60;4.75;;;;;;;18.02;79.12;100979.94;5031813;28;20496;-46
2024/04/06 06:10:21;;;;;;;7.57;4.57;;;;;;;17.94;79.16;100967.72;5031585;28;20037;-46
2024/04/06 06:12:47;;;;;;;7.13;4.43;;;;;;;18.32;78.10;100982.97;5030912;28;20029;-50
2024/04/06 06:15:12;;;;;;;8.82;4.30;;;;;;;18.40;78.21;100979.31;5030633;28;20033;-46
2024/04/06 06:17:37;;;;;;;6.47;4.18;;;;;;;18.30;78.39;100977.69;5030534;28;20404;-45
2024/04/06 06:20:04;;;;;;;8.10;4.20;;;;;;;18.78;77.26;100983.09;5030726;28;20124;-47
2024/04/06 06:22:30;;;;;;;7.90;4.10;;;;;;;18.95;76.10;100970.41;5030355;28;20072;-46
2024/04/06 06:24:56;;;;;;;7.50;4.28;;;;;;;19.33;75.35;100974.94;5030654;28;20080;-50
2024/04/06 06:27:21;;;;;;;7.30;4.03;;;;;;;19.40;73.87;100971.25;5030581;28;20025;-45
2024/04/06 06:29:47;;;;;;;6.55;3.83;;;;;;;19.82;72.72;100962.38;5030400;28;20202;-46
2024/04/06 06:32:12;;;;;;;6.93;3.60;;;;;;;20.18;70.91;100955.38;5030715;28;20135;-45
2024/04/06 06:34:37;;;;;;;6.05;3.35;;;;;;;20.13;69.97;100951.94;5030158;28;20026;-45
2024/04/06 06:37:03;;;;;;;6.22;3.50;;;;;;;20.44;69.85;100954.72;5030896;28;20033;-44
2024/04/06 06:39:29;;;;;;;12.05;3.15;;;;;;;21.41;67.79;100945.84;5030879;28;20120;-48
2024/04/06 06:41:55;;;;;;;5.75;3.13;;;;;;;22.00;61.79;100937.84;5031195;28;20111;-45
2024/04/06 06:44:20;;;;;;;5.57;3.25;;;;;;;21.83;61.52;100938.38;5032129;28;20530;-48
2024/04/06 06:46:46;;;;;;;6.22;3.38;;;;;;;22.57;60.80;100942.97;5031515;28;20034;-48
2024/04/06 06:49:11;;;;;;;5.38;3.30;;;;;;;23.43;57.96;100929.16;5030692;28;20033;-47
2024/04/06 06:51:37;;;;;;;5.40;2.97;;;;;;;24.19;54.51;100927.94;5030565;28;20132;-46
2024/04/06 06:54:03;;;;;;;5.15;2.80;;;;;;;24.46;53.22;100932.06;5030423;28;20033;-48
2024/04/06 06:56:29;;;;;;;4.70;3.10;;;;;;;24.21;51.72;100915.41;5030759;28;20511;-48
2024/04/06 06:58:54;;;;;;;5.28;2.95;;;;;;;23.92;52.16;100905.06;5031110;28;20076;-48
2024/04/06 07:01:19;;;;;;;7.15;3.30;;;;;;;23.21;54.05;100906.97;5031040;28;20026;-46
2024/04/06 07:03:45;;;;;;;6.03;3.22;;;;;;;22.71;56.29;100908.81;5030565;28;20034;-51
2024/04/06 07:06:12;;;;;;;6.30;3.22;;;;;;;22.14;58.27;100907.25;5031010;28;20040;-45
2024/04/06 07:08:41;;;;;;;7.03;3.30;;;;;;;22.20;58.92;100909.69;5030367;28;20034;-47
2024/04/06 07:11:06;;;;;;;5.50;3.28;;;;;;;22.34;57.62;100901.25;5030826;28;20065;-47
2024/04/06 07:13:32;;;;;;;6.85;3.17;;;;;;;23.27;56.86;100896.09;5030197;28;20079;-48
2024/04/06 07:16:05;;;;;;;8.38;3.22;;;;;;;24.15;52.92;100889.00;5030164;28;20044;-48
2024/04/06 07:18:31;;;;;;;4.82;2.90;;;;;;;25.02;50.28;100886.91;5030258;28;20082;-46
2024/04/06 07:20:56;;;;;;;6.95;3.15;;;;;;;25.34;48.20;100903.25;5030647;28;20120;-50
2024/04/06 07:23:22;;;;;;;5.07;2.72;;;;;;;26.01;45.78;100900.00;5030739;28;20448;-47
2024/04/06 07:25:47;;;;;;;5.20;3.15;;;;;;;26.55;44.55;100899.00;5030154;28;20150;-48
2024/04/06 07:28:12;;;;;;;4.32;2.63;;;;;;;26.66;44.21;100875.22;5030348;28;20125;-47
2024/04/06 07:30:38;;;;;;;5.93;3.10;;;;;;;25.82;45.30;100881.34;5030081;28;20045;-48
2024/04/06 07:33:03;;;;;;;4.88;2.80;;;;;;;25.36;46.60;100869.34;5030892;28;20360;-47
2024/04/06 07:35:29;;;;;;;4.55;2.88;;;;;;;25.41;46.69;100869.97;5029935;28;20068;-45
2024/04/06 07:37:54;;;;;;;5.20;2.65;;;;;;;25.10;47.53;100875.91;5030401;28;20128;-44
2024/04/06 07:40:19;;;;;;;5.97;2.90;;;;;;;24.70;49.10;100878.63;5030645;28;20049;-47
2024/04/06 07:42:44;;;;;;;6.95;2.67;;;;;;;24.60;49.76;100883.50;5030522;28;20495;-50
2024/04/06 07:45:10;;;;;;;4.38;2.67;;;;;;;24.63;48.17;100880.72;5030594;28;20034;-46
2024/04/06 07:47:35;;;;;;;7.30;2.75;;;;;;;25.05;47.13;100877.94;5029925;28;20026;-47
2024/04/06 07:50:00;;;;;;;4.88;2.40;;;;;;;25.00;48.26;100871.94;5030137;28;20116;-49
2024/04/06 07:52:25;;;;;;;6.07;2.53;;;;;;;24.23;48.95;100865.59;5030395;28;20045;-47
2024/04/06 07:54:51;;;;;;;4.18;2.65;;;;;;;24.03;50.43;100858.41;5029561;28;20053;-51
2024/04/06 07:57:16;;;;;;;5.05;2.67;;;;;;;23.45;52.02;100862.56;5029917;28;20029;-45
2024/04/06 07:59:43;;;;;;;5.38;2.50;;;;;;;23.22;52.70;100860.81;5029701;28;20084;-46
2024/04/06 08:02:10;;;;;;;7.28;2.58;;;;;;;23.43;52.41;100857.31;5030066;28;20040;-46
2024/04/06 08:04:35;;;;;;;4.28;2.42;;;;;;;23.55;52.95;100855.97;5029430;28;20040;-47
2024/04/06 08:07:03;;;;;;;5.85;2.60;;;;;;;23.22;53.41;100860.81;5033232;28;20034;-46
2024/04/06 08:09:29;;;;;;;4.10;2.33;;;;;;;23.52;52.62;100857.91;5033482;28;20140;-47
2024/04/06 08:11:54;;;;;;;5.75;2.65;;;;;;;23.42;52.30;100855.56;5033721;28;20057;-49
2024/04/06 08:14:19;;;;;;;4.47;2.50;;;;;;;23.64;52.50;100852.09;5033419;28;20042;-48
2024/04/06 08:16:45;;;;;;;5.93;2.65;;;;;;;23.48;51.84;100846.53;5032794;28;20041;-45
2024/04/06 08:19:10;;;;;;;4.00;2.30;;;;;;;23.63;51.56;100848.56;5033975;28;20029;-48
2024/04/06 08:21:36;;;;;;;6.25;2.40;;;;;;;23.41;50.78;100842.34;5033208;28;20037;-46
2024/04/06 08:24:01;;;;;;;8.43;2.65;;;;;;;23.31;50.95;100833.84;5033935;28;20044;-45
2024/04/06 08:26:26;;;;;;;3.85;2.20;;;;;;;23.70;49.83;100827.88;5033928;28;20522;-50
2024/04/06 08:28:52;;;;;;;4.65;2.13;;;;;;;23.47;49.66;100834.16;5033114;28;20053;-48
2024/04/06 08:31:18;;;;;;;4.88;2.40;;;;;;;23.57;50.03;100834.63;5033828;28;20037;-47
2024/04/06 08:33:43;;;;;;;3.97;2.20;;;;;;;23.47;50.32;100819.97;5033396;28;20059;-46
2024/04/06 08:36:08;;;;;;;3.58;2.22;;;;;;;23.43;49.43;100830.69;5034030;28;20092;-45
2024/04/06 08:38:34;;;;;;;3.92;2.05;;;;;;;23.80;49.14;100826.56;5033800;28;20048;-45
2024/04/06 08:41:09;;;;;;;4.78;2.30;;;;;;;23.80;50.00;100824.75;5033868;28;20033;-49
2024/04/06 08:43:42;;;;;;;4.85;2.53;;;;;;;23.75;48.70;100826.75;5033065;28;20046;-45
2024/04/06 08:46:08;;;;;;;5.78;2.45;;;;;;;24.22;47.87;100816.75;5033082;28;20041;-48
2024/04/06 08:48:38;;;;;;;5.13;2.38;;;;;;;23.87;48.60;100814.72;5032780;28;20381;-50
2024/04/06 08:51:05;;;;;;;5.15;2.22;;;;;;;24.05;48.30;100811.28;5034076;28;20036;-49
2024/04/06 08:53:31;;;;;;;5.30;2.38;;;;;;;24.05;47.70;100797.97;5032464;28;20034;-45
2024/04/06 08:56:04;;;;;;;9.30;2.40;;;;;;;24.26;47.56;100796.19;5032636;28;20423;-45
2024/04/06 08:58:29;;;;;;;4.78;2.33;;;;;;;24.29;47.05;100797.84;5032844;28;20060;-49
2024/04/06 09:00:55;;;;;;;10.52;2.22;;;;;;;24.28;46.72;100794.31;5033254;28;20033;-46
2024/04/06 09:03:20;;;;;;;7.43;2.00;;;;;;;24.10;46.53;100787.09;5033383;28;20415;-48
2024/04/06 09:05:46;;;;;;;4.80;1.90;;;;;;;24.17;46.42;100783.22;5032748;28;20038;-50
2024/04/06 09:08:17;;;;;;;4.78;2.22;;;;;;;24.37;46.03;100785.91;5033427;28;20119;-45
2024/04/06 09:10:42;;;;;;;5.95;2.33;;;;;;;23.95;46.53;100778.00;5032822;28;20037;-49
2024/04/06 09:13:08;;;;;;;3.42;1.90;;;;;;;24.48;45.84;100770.31;5033252;28;20041;-46
2024/04/06 09:15:35;;;;;;;4.72;2.10;;;;;;;24.67;45.20;100765.88;5032234;28;20500;-48
2024/04/06 09:18:01;;;;;;;7.80;2.03;;;;;;;24.88;45.35;100769.34;5031172;28;20044;-46
2024/04/06 09:20:26;;;;;;;4.57;2.00;;;;;;;24.65;45.73;100770.38;5032544;28;20041;-46
2024/04/06 09:22:54;;;;;;;6.22;1.95;;;;;;;24.72;44.47;100773.63;5031905;28;20040;-45
2024/04/06 09:25:22;;;;;;;3.78;1.90;;;;;;;24.79;43.92;100766.22;5031923;28;20037;-46
2024/04/06 09:27:47;;;;;;;4.50;2.10;;;;;;;25.10;43.17;100758.53;5031887;28;20116;-45
2024/04/06 09:30:13;;;;;;;4.07;2.13;;;;;;;25.41;42.85;100760.56;5032546;28;20060;-46
2024/04/06 09:32:43;;;;;;;4.20;2.13;;;;;;;25.05;43.32;100750.75;5031892;28;20045;-52
2024/04/06 09:35:10;;;;;;;3.92;2.00;;;;;;;24.81;43.31;100746.56;5031955;28;20040;-45
2024/04/06 09:37:40;;;;;;;4.32;1.90;;;;;;;25.43;42.43;100754.19;5031804;28;20125;-46
2024/04/06 09:40:10;;;;;;;3.60;1.75;;;;;;;25.40;41.99;100756.16;5032494;28;20036;-49
2024/04/06 09:42:36;;;;;;;4.72;1.80;;;;;;;25.34;41.62;100756.47;5031243;28;20033;-46
2024/04/06 09:45:03;;;;;;;5.20;1.98;;;;;;;25.15;42.56;100769.84;5031727;28;20036;-49
2024/04/06 09:47:30;;;;;;;4.53;2.00;;;;;;;25.48;41.71;100771.78;5031858;28;20496;-45
2024/04/06 09:49:57;;;;;;;6.88;1.65;;;;;;;25.27;40.68;100765.69;5032036;28;20044;-47
2024/04/06 09:52:22;;;;;;;3.33;1.75;;;;;;;25.36;41.45;100757.25;5032003;28;20118;-48
2024/04/06 09:54:48;;;;;;;3.88;1.92;;;;;;;25.32;41.22;100761.88;5030982;28;20033;-47
2024/04/06 09:57:14;;;;;;;4.15;2.10;;;;;;;25.50;41.18;100769.88;5031937;28;20029;-45
2024/04/06 09:59:40;;;;;;;4.78;1.92;;;;;;;25.51;41.84;100782.31;5031394;28;20041;-46
2024/04/06 10:02:06;;;;;;;4.85;1.90;;;;;;;25.68;40.93;100771.66;5031825;28;20080;-47
2024/04/06 10:04:36;;;;;;;3.50;1.90;;;;;;;25.53;40.00;100765.28;5031635;28;20618;-48
2024/04/06 10:07:04;;;;;;;4.05;2.08;;;;;;;25.62;39.59;100762.16;5031616;28;20088;-47
2024/04/06 10:09:34;;;;;;;3.17;1.70;;;;;;;25.80;40.09;100758.56;5031223;28;20515;-45
2024/04/06 10:12:02;;;;;;;5.00;2.03;;;;;;;25.72;38.67;100758.09;5031865;28;20044;-49
2024/04/06 10:14:29;;;;;;;4.60;1.77;;;;;;;25.64;39.16;100743.41;5031256;28;20080;-50
2024/04/06 10:17:08;;;;;;;4.35;1.70;;;;;;;25.93;38.49;100748.09;5031304;28;20064;-43
2024/04/06 10:19:43;;;;;;;4.03;1.65;;;;;;;26.02;39.16;100736.97;5029404;28;20110;-48
2024/04/06 10:22:09;;;;;;;6.95;1.73;;;;;;;26.12;39.20;100729.31;5031792;28;20033;-45
2024/04/06 10:24:35;;;;;;;4.18;1.60;;;;;;;26.28;38.56;100708.03;5031516;28;20037;-44
2024/04/06 10:27:00;;;;;;;5.25;1.70;;;;;;;26.02;37.88;100709.38;5031305;28;20667;-46
2024/04/06 10:29:34;;;;;;;3.83;1.70;;;;;;;25.92;38.31;100701.00;5029113;28;20041;-50
2024/04/06 10:31:59;;;;;;;6.18;1.80;;;;;;;26.18;38.22;100708.47;5030774;28;20036;-50
2024/04/06 10:34:25;;;;;;;3.53;1.60;;;;;;;26.19;37.88;100696.84;5031042;28;20030;-48
2024/04/06 10:36:50;;;;;;;2.50;1.50;;;;;;;26.13;37.16;100688.28;5030542;28;20515;-47
2024/04/06 10:39:16;;;;;;;4.93;1.80;;;;;;;26.17;37.49;100676.47;5031354;28;20464;-46
2024/04/06 10:41:43;;;;;;;5.28;1.60;;;;;;;26.22;36.24;100687.81;5030439;28;20041;-46
2024/04/06 10:44:09;;;;;;;5.50;1.70;;;;;;;26.22;35.67;100677.13;5030935;28;20040;-48
2024/04/06 10:46:34;;;;;;;3.10;1.33;;;;;;;26.23;36.52;100692.19;5030101;28;20049;-49
2024/04/06 10:49:00;;;;;;;5.05;1.63;;;;;;;26.25;36.23;100691.19;5031165;28;20033;-47
2024/04/06 10:51:27;;;;;;;3.33;1.58;;;;;;;26.36;35.88;100692.41;5030649;28;20395;-49
2024/04/06 10:53:54;;;;;;;5.57;1.80;;;;;;;26.07;35.96;100689.47;5030000;28;20112;-43
2024/04/06 10:56:20;;;;;;;4.53;1.77;;;;;;;26.14;36.20;100696.22;5030577;28;20037;-49
2024/04/06 10:58:46;;;;;;;4.30;1.50;;;;;;;26.32;35.79;100682.84;5030697;28;20401;-47
2024/04/06 11:01:13;;;;;;;4.00;1.73;;;;;;;26.44;35.20;100667.00;5030699;28;20032;-46
2024/04/06 11:03:38;;;;;;;3.90;1.40;;;;;;;26.53;34.83;100662.97;5030947;28;20048;-47
2024/04/06 11:06:04;;;;;;;2.80;1.60;;;;;;;26.67;34.57;100677.25;5030717;28;20029;-45
2024/04/06 11:08:29;;;;;;;3.13;1.50;;;;;;;26.55;34.34;100680.63;5030224;28;20037;-48
2024/04/06 11:10:55;;;;;;;4.40;1.60;;;;;;;26.67;34.32;100682.59;5031207;28;20033;-47
2024/04/06 11:13:22;;;;;;;3.47;1.70;;;;;;;26.52;34.47;100677.25;5030833;28;20041;-46
2024/04/06 11:15:47;;;;;;;5.25;1.50;;;;;;;26.79;34.17;100685.53;5030062;28;20547;-45